createdAt,value
2019-04-03T00:02:26.839Z,25.30
2019-04-03T00:04:58.552Z,19.97
2019-04-03T00:07:30.409Z,26.47
2019-04-03T00:10:02.576Z,24.37
2019-04-03T00:12:34.473Z,24.57
2019-04-03T00:15:06.578Z,29.27
2019-04-03T00:17:38.360Z,27.97
2019-04-03T00:20:10.146Z,31.73
2019-04-03T00:22:41.908Z,25.53
2019-04-03T00:25:13.630Z,19.40
2019-04-03T00:27:45.559Z,25.47
2019-04-03T00:30:17.255Z,24.73
2019-04-03T00:32:49.043Z,24.10
2019-04-03T00:35:23.112Z,24.40
2019-04-03T00:37:54.374Z,24.03
2019-04-03T00:40:26.205Z,25.73
2019-04-03T00:42:57.865Z,44.30
2019-04-03T00:45:29.677Z,43.30
2019-04-03T00:48:01.599Z,28.87
2019-04-03T00:50:33.358Z,29.80
2019-04-03T00:53:05.266Z,28.63
2019-04-03T00:55:36.942Z,31.07
2019-04-03T00:58:36.407Z,46.30
2019-04-03T01:01:09.204Z,27.53
2019-04-03T01:03:40.938Z,27.97
2019-04-03T01:06:12.693Z,22.50
2019-04-03T01:08:44.430Z,27.90
2019-04-03T01:11:16.214Z,29.90
2019-04-03T01:13:48.080Z,30.53
2019-04-03T01:16:19.860Z,28.37
2019-04-03T01:18:51.648Z,26.10
2019-04-03T01:21:28.220Z,22.50
2019-04-03T01:24:00.152Z,23.67
2019-04-03T01:26:32.130Z,24.63
2019-04-03T01:29:03.899Z,27.40
2019-04-03T01:31:35.672Z,23.60
2019-04-03T01:34:07.500Z,26.80
2019-04-03T01:36:39.208Z,25.83
2019-04-03T01:39:10.909Z,23.30
2019-04-03T01:41:42.679Z,29.10
2019-04-03T01:44:14.368Z,31.57
2019-04-03T01:46:45.955Z,30.50
2019-04-03T01:49:17.569Z,28.27
2019-04-03T01:51:49.385Z,31.70
2019-04-03T01:54:21.618Z,28.47
2019-04-03T01:56:53.694Z,31.17
2019-04-03T01:59:25.419Z,65.53
2019-04-03T02:01:57.378Z,34.27
2019-04-03T02:04:29.066Z,26.53
2019-04-03T02:07:00.850Z,24.63
2019-04-03T02:09:32.464Z,36.97
2019-04-03T02:12:04.417Z,32.60
2019-04-03T02:14:36.233Z,27.63
2019-04-03T02:17:09.090Z,26.53
2019-04-03T02:19:40.976Z,29.77
2019-04-03T02:22:12.574Z,26.17
2019-04-03T02:24:44.447Z,26.37
2019-04-03T02:27:16.139Z,25.50
2019-04-03T02:29:47.925Z,28.50
2019-04-03T02:32:21.396Z,25.03
2019-04-03T02:34:53.016Z,24.93
2019-04-03T02:37:25.039Z,31.53
2019-04-03T02:40:00.107Z,31.30
2019-04-03T02:42:30.037Z,29.80
2019-04-03T02:45:02.342Z,28.43
2019-04-03T02:47:34.744Z,39.73
2019-04-03T02:50:06.800Z,41.10
2019-04-03T02:52:38.603Z,29.70
2019-04-03T02:55:10.364Z,33.57
2019-04-03T02:57:42.139Z,24.33
2019-04-03T03:00:13.885Z,25.10
2019-04-03T03:02:46.212Z,28.17
2019-04-03T03:05:18.101Z,24.27
2019-04-03T03:07:49.901Z,46.90
2019-04-03T03:10:21.585Z,55.57
2019-04-03T03:12:53.358Z,53.73
2019-04-03T03:15:24.996Z,52.27
2019-04-03T03:17:56.690Z,52.00
2019-04-03T03:20:28.434Z,55.93
2019-04-03T03:23:00.974Z,58.00
2019-04-03T03:25:34.294Z,54.70
2019-04-03T03:28:07.320Z,42.83
2019-04-03T03:30:46.777Z,51.07
2019-04-03T03:33:28.858Z,46.97
2019-04-03T03:35:48.886Z,32.57
2019-04-03T03:38:19.780Z,37.57
2019-04-03T03:40:51.555Z,32.23
2019-04-03T03:43:23.448Z,34.50
2019-04-03T03:45:55.104Z,37.07
2019-04-03T03:48:26.710Z,88.20
2019-04-03T03:50:58.678Z,67.37
2019-04-03T03:53:30.534Z,37.43
2019-04-03T03:56:02.966Z,34.20
2019-04-03T03:58:35.076Z,35.33
2019-04-03T04:01:06.791Z,34.67
2019-04-03T04:03:41.096Z,44.10
2019-04-03T04:06:11.815Z,43.80
2019-04-03T04:08:45.165Z,43.97
2019-04-03T04:11:17.039Z,46.73
2019-04-03T04:13:49.750Z,43.20
2019-04-03T04:16:21.995Z,43.83
2019-04-03T04:18:57.004Z,58.10
2019-04-03T04:21:27.247Z,62.03
2019-04-03T04:23:59.003Z,65.97
2019-04-03T04:26:31.606Z,64.00
2019-04-03T04:29:03.981Z,80.97
2019-04-03T04:31:35.686Z,59.17
2019-04-03T04:34:07.463Z,58.93
2019-04-03T04:36:39.184Z,59.97
2019-04-03T04:39:10.894Z,111.80
2019-04-03T04:41:42.650Z,47.57
2019-04-03T04:44:15.201Z,48.73
2019-04-03T04:46:47.050Z,54.77
2019-04-03T04:49:18.768Z,66.63
2019-04-03T04:51:50.470Z,57.87
2019-04-03T04:54:22.178Z,49.43
2019-04-03T04:56:54.006Z,44.17
2019-04-03T04:59:25.948Z,44.03
2019-04-03T05:01:57.707Z,87.57
2019-04-03T05:04:29.409Z,98.20
2019-04-03T05:07:01.000Z,63.17
2019-04-03T05:09:34.361Z,49.37
2019-04-03T05:12:06.018Z,43.27
2019-04-03T05:14:37.637Z,51.07
2019-04-03T05:17:09.351Z,74.47
2019-04-03T05:19:41.041Z,77.43
2019-04-03T05:22:12.771Z,92.67
2019-04-03T05:24:45.443Z,56.67
2019-04-03T05:27:17.054Z,49.63
2019-04-03T05:29:48.756Z,29.97
2019-04-03T05:32:20.465Z,56.27
2019-04-03T05:34:52.459Z,43.43
2019-04-03T05:37:24.317Z,45.50
2019-04-03T05:39:56.241Z,41.30
2019-04-03T05:42:29.217Z,34.80
2019-04-03T05:45:03.842Z,38.60
2019-04-03T05:47:34.728Z,30.47
2019-04-03T05:50:06.744Z,57.87
2019-04-03T05:52:38.508Z,36.10
2019-04-03T05:55:10.272Z,61.20
2019-04-03T05:57:44.939Z,87.03
2019-04-03T06:00:15.543Z,60.07
2019-04-03T06:02:47.400Z,93.63
2019-04-03T06:05:19.624Z,72.70
2019-04-03T06:07:51.767Z,41.20
2019-04-03T06:10:23.643Z,35.83
2019-04-03T06:12:55.364Z,27.00
2019-04-03T06:15:27.233Z,33.03
2019-04-03T06:17:59.009Z,27.67
2019-04-03T06:20:30.714Z,29.70
2019-04-03T06:23:02.683Z,29.40
2019-04-03T06:25:35.343Z,29.60
2019-04-03T06:28:07.039Z,30.63
2019-04-03T06:30:38.642Z,29.30
2019-04-03T06:33:10.546Z,43.07
2019-04-03T06:35:44.664Z,110.93
2019-04-03T06:38:15.731Z,31.53
2019-04-03T06:40:47.507Z,33.00
2019-04-03T06:43:19.513Z,37.43
2019-04-03T06:45:51.160Z,32.10
2019-04-03T06:48:22.903Z,40.53
2019-04-03T06:50:54.688Z,32.63
2019-04-03T06:53:28.574Z,34.17
2019-04-03T06:55:59.851Z,31.03
2019-04-03T06:58:38.105Z,29.37
2019-04-03T07:01:05.642Z,28.50
2019-04-03T07:03:37.416Z,35.90
2019-04-03T07:06:09.110Z,81.87
2019-04-03T07:08:41.176Z,28.23
2019-04-03T07:11:22.842Z,32.13
2019-04-03T07:13:46.471Z,28.73
2019-04-03T07:16:18.240Z,29.53
2019-04-03T07:18:50.129Z,25.73
2019-04-03T07:21:22.815Z,30.10
2019-04-03T07:23:55.529Z,33.17
2019-04-03T07:26:27.545Z,46.10
2019-04-03T07:28:59.543Z,48.47
2019-04-03T07:31:31.681Z,46.27
2019-04-03T07:34:03.967Z,38.27
2019-04-03T07:36:35.804Z,57.73
2019-04-03T07:39:10.931Z,53.50
2019-04-03T07:41:42.216Z,47.17
2019-04-03T07:44:14.286Z,36.97
2019-04-03T07:46:46.114Z,36.47
2019-04-03T07:49:17.837Z,44.57
2019-04-03T07:51:49.839Z,34.10
2019-04-03T07:54:22.522Z,31.30
2019-04-03T07:56:56.422Z,37.67
2019-04-03T07:59:28.249Z,31.83
2019-04-03T08:02:00.121Z,38.97
2019-04-03T08:04:32.086Z,28.30
2019-04-03T08:07:03.948Z,32.80
2019-04-03T08:09:35.760Z,40.20
2019-04-03T08:12:07.559Z,39.20
2019-04-03T08:14:41.204Z,35.60
2019-04-03T08:17:12.761Z,28.03
2019-04-03T08:19:45.416Z,31.33
2019-04-03T08:22:18.095Z,30.60
2019-04-03T08:24:52.781Z,30.73
2019-04-03T08:27:24.361Z,26.77
2019-04-03T08:29:56.330Z,29.90
2019-04-03T08:32:28.037Z,27.57
2019-04-03T08:35:02.375Z,26.93
2019-04-03T08:37:33.573Z,25.37
2019-04-03T08:40:05.869Z,28.67
2019-04-03T08:42:38.645Z,31.03
2019-04-03T08:45:11.117Z,26.83
2019-04-03T08:47:46.142Z,34.03
2019-04-03T08:50:16.722Z,35.30
2019-04-03T08:52:48.519Z,27.40
2019-04-03T08:55:20.467Z,30.67
2019-04-03T08:57:53.258Z,29.13
2019-04-03T09:00:25.356Z,27.43
2019-04-03T09:02:57.168Z,35.03
2019-04-03T09:05:28.944Z,27.63
2019-04-03T09:08:00.848Z,27.60
2019-04-03T09:10:36.497Z,56.53
2019-04-03T09:13:16.856Z,24.50
2019-04-03T09:15:40.117Z,23.77
2019-04-03T09:18:11.842Z,30.63
2019-04-03T09:20:44.221Z,23.53
2019-04-03T09:23:16.293Z,25.57
2019-04-03T09:25:48.209Z,29.07
2019-04-03T09:28:20.920Z,27.60
2019-04-03T09:30:54.111Z,25.73
2019-04-03T09:33:27.991Z,25.43
2019-04-03T09:35:59.927Z,24.67
2019-04-03T09:38:35.294Z,31.23
2019-04-03T09:41:05.761Z,28.67
2019-04-03T09:43:39.389Z,25.23
2019-04-03T09:46:10.858Z,22.10
2019-04-03T09:48:42.637Z,26.50
2019-04-03T09:51:14.319Z,26.03
2019-04-03T09:53:46.301Z,28.83
2019-04-03T09:56:17.996Z,27.37
2019-04-03T09:58:49.664Z,27.13
2019-04-03T10:01:21.735Z,27.70
2019-04-03T10:03:55.064Z,33.07
2019-04-03T10:06:26.941Z,32.37
2019-04-03T10:08:58.736Z,40.07
2019-04-03T10:11:30.443Z,33.37
2019-04-03T10:14:02.381Z,39.20
2019-04-03T10:16:35.641Z,28.30
2019-04-03T10:19:07.675Z,82.13
2019-04-03T10:21:39.559Z,290.97
2019-04-03T10:24:11.211Z,40.23
2019-04-03T10:26:43.010Z,30.70
2019-04-03T10:29:14.718Z,32.80
2019-04-03T10:31:46.330Z,38.03
2019-04-03T10:34:18.153Z,36.17
2019-04-03T10:36:49.978Z,36.37
2019-04-03T10:39:21.778Z,34.43
2019-04-03T10:41:53.858Z,45.13
2019-04-03T10:44:25.696Z,36.13
2019-04-03T10:46:57.699Z,26.57
2019-04-03T10:49:31.554Z,94.03
2019-04-03T10:52:03.161Z,31.33
2019-04-03T10:54:37.406Z,27.93
2019-04-03T10:57:08.524Z,31.83
2019-04-03T10:59:40.330Z,36.57
2019-04-03T11:02:12.039Z,34.13
2019-04-03T11:04:44.723Z,82.87
2019-04-03T11:07:16.577Z,37.63
2019-04-03T11:09:48.754Z,41.13
2019-04-03T11:12:20.446Z,58.13
2019-04-03T11:14:52.182Z,34.80
2019-04-03T11:17:25.722Z,40.03
2019-04-03T11:19:57.491Z,31.80
2019-04-03T11:22:39.709Z,47.10
2019-04-03T11:25:03.054Z,46.90
2019-04-03T11:27:41.931Z,45.03
2019-04-03T11:30:11.382Z,33.60
2019-04-03T11:32:42.686Z,67.60
2019-04-03T11:35:14.962Z,29.60
2019-04-03T11:37:46.776Z,43.03
2019-04-03T11:40:18.803Z,40.30
2019-04-03T11:42:50.767Z,29.87
2019-04-03T11:45:22.566Z,200.40
2019-04-03T11:47:54.560Z,45.43
2019-04-03T11:50:26.592Z,28.97
2019-04-03T11:53:01.480Z,38.23
2019-04-03T11:55:32.141Z,43.50
2019-04-03T11:58:03.813Z,43.30
2019-04-03T12:00:43.679Z,66.50
2019-04-03T12:03:15.680Z,35.90
2019-04-03T12:05:48.254Z,46.03
2019-04-03T12:08:20.073Z,35.13
2019-04-03T12:10:51.867Z,31.60
2019-04-03T12:13:23.806Z,53.60
2019-04-03T12:15:58.129Z,71.57
2019-04-03T12:18:29.505Z,29.37
2019-04-03T12:21:03.058Z,56.00
2019-04-03T12:23:34.910Z,28.43
2019-04-03T12:26:07.047Z,52.50
2019-04-03T12:28:38.778Z,59.00
2019-04-03T12:31:10.581Z,38.17
2019-04-03T12:33:52.398Z,41.07
2019-04-03T12:36:15.968Z,35.67
2019-04-03T12:38:47.749Z,34.10
2019-04-03T12:41:19.449Z,46.33
2019-04-03T12:43:51.309Z,34.30
2019-04-03T12:46:37.505Z,86.90
2019-04-03T12:49:10.636Z,55.80
2019-04-03T12:51:42.402Z,44.73
2019-04-03T12:54:14.198Z,79.80
2019-04-03T12:56:46.843Z,50.30
2019-04-03T12:59:20.418Z,55.87
2019-04-03T13:01:51.933Z,32.17
2019-04-03T13:04:25.754Z,49.87
2019-04-03T13:06:57.250Z,44.40
2019-04-03T13:09:29.724Z,34.40
2019-04-03T13:12:01.832Z,42.00
2019-04-03T13:14:33.662Z,37.47
2019-04-03T13:17:05.898Z,43.53
2019-04-03T13:19:37.985Z,148.90
2019-04-03T13:22:11.175Z,31.90
2019-04-03T13:24:44.350Z,24.07
2019-04-03T13:27:16.778Z,31.10
2019-04-03T13:29:48.545Z,37.07
2019-04-03T13:32:22.189Z,33.80
2019-04-03T13:34:53.844Z,33.77
2019-04-03T13:37:25.719Z,143.27
2019-04-03T13:40:00.207Z,43.70
2019-04-03T13:42:32.422Z,161.63
2019-04-03T13:45:04.162Z,55.07
2019-04-03T13:47:35.956Z,81.40
2019-04-03T13:50:09.529Z,33.63
2019-04-03T13:52:47.546Z,41.83
2019-04-03T13:55:14.575Z,42.60
2019-04-03T13:57:46.927Z,33.20
2019-04-03T14:00:22.990Z,61.53
2019-04-03T14:02:56.039Z,34.50
2019-04-03T14:05:29.611Z,73.00
2019-04-03T14:08:00.475Z,73.27
2019-04-03T14:10:34.019Z,54.03
2019-04-03T14:13:05.890Z,35.20
2019-04-03T14:15:38.118Z,77.67
2019-04-03T14:18:11.046Z,154.73
2019-04-03T14:20:42.762Z,90.23
2019-04-03T14:23:14.549Z,54.40
2019-04-03T14:25:46.267Z,54.73
2019-04-03T14:28:18.457Z,63.20
2019-04-03T14:30:50.622Z,62.17
2019-04-03T14:33:24.881Z,43.97
2019-04-03T14:35:55.960Z,47.63
2019-04-03T14:38:29.041Z,42.70
2019-04-03T14:41:01.991Z,56.73
2019-04-03T14:43:34.563Z,47.67
2019-04-03T14:46:06.959Z,92.17
2019-04-03T14:48:38.688Z,74.23
2019-04-03T14:51:11.427Z,45.40
2019-04-03T14:53:45.027Z,35.67
2019-04-03T14:56:16.740Z,41.30
2019-04-03T14:58:48.497Z,49.50
2019-04-03T15:01:20.874Z,51.23
2019-04-03T15:03:52.901Z,152.07
2019-04-03T15:06:26.761Z,71.90
2019-04-03T15:08:58.610Z,62.40
2019-04-03T15:11:30.818Z,73.87
2019-04-03T15:14:03.206Z,46.47
2019-04-03T15:16:35.253Z,71.23
2019-04-03T15:19:07.213Z,86.10
2019-04-03T15:21:38.949Z,67.23
2019-04-03T15:24:11.451Z,87.83
2019-04-03T15:26:44.293Z,43.20
2019-04-03T15:29:16.100Z,54.37
2019-04-03T15:31:48.108Z,43.53
2019-04-03T15:34:19.952Z,58.57
2019-04-03T15:36:51.767Z,54.23
2019-04-03T15:39:24.044Z,73.20
2019-04-03T15:41:56.634Z,38.50
2019-04-03T15:44:28.893Z,48.10
2019-04-03T15:47:01.163Z,33.60
2019-04-03T15:49:34.044Z,36.53
2019-04-03T15:52:06.012Z,41.20
2019-04-03T15:54:37.721Z,66.35
2019-04-03T15:57:09.444Z,77.42
2019-04-03T15:59:41.045Z,67.32
2019-04-03T16:02:13.344Z,52.43
2019-04-03T16:04:45.161Z,50.65
2019-04-03T16:07:17.190Z,52.55
2019-04-03T16:09:50.682Z,48.05
2019-04-03T16:12:23.741Z,46.20
2019-04-03T16:14:55.519Z,69.60
2019-04-03T16:17:28.305Z,75.15
2019-04-03T16:19:59.921Z,106.40
2019-04-03T16:22:32.284Z,83.85
2019-04-03T16:25:04.091Z,129.87
2019-04-03T16:27:36.372Z,83.27
2019-04-03T16:30:08.444Z,109.45
2019-04-03T16:32:40.172Z,67.65
2019-04-03T16:35:13.730Z,353.12
2019-04-03T16:37:45.372Z,65.90
2019-04-03T16:40:17.195Z,73.65
2019-04-03T16:42:52.723Z,62.75
2019-04-03T16:45:22.365Z,54.03
2019-04-03T16:47:55.216Z,51.23
2019-04-03T16:50:28.006Z,118.37
2019-04-03T16:53:00.703Z,298.63
2019-04-03T16:55:32.690Z,394.60
2019-04-03T16:58:04.499Z,248.33
2019-04-03T17:00:38.563Z,223.10
2019-04-03T17:03:09.573Z,102.87
2019-04-03T17:05:43.326Z,132.67
2019-04-03T17:08:14.704Z,63.33
2019-04-03T17:10:46.442Z,140.43
2019-04-03T17:13:18.880Z,89.17
2019-04-03T17:15:51.554Z,241.90
2019-04-03T17:18:23.197Z,433.43
2019-04-03T17:20:56.386Z,427.97
2019-04-03T17:23:28.283Z,277.80
2019-04-03T17:26:00.232Z,165.57
2019-04-03T17:28:32.461Z,219.63
2019-04-03T17:31:04.448Z,148.43
2019-04-03T17:33:36.507Z,82.97
2019-04-03T17:36:08.264Z,152.03
2019-04-03T17:38:40.588Z,174.80
2019-04-03T17:41:12.393Z,183.00
2019-04-03T17:43:44.154Z,130.30
2019-04-03T17:46:17.614Z,109.23
2019-04-03T17:48:49.319Z,66.47
2019-04-03T17:51:21.080Z,85.37
2019-04-03T17:53:52.875Z,70.70
2019-04-03T17:56:24.599Z,92.37
2019-04-03T17:58:56.316Z,81.27
2019-04-03T18:01:28.018Z,63.03
2019-04-03T18:03:59.710Z,53.47
2019-04-03T18:06:31.401Z,62.63
2019-04-03T18:09:04.229Z,78.50
2019-04-03T18:11:37.433Z,151.23
2019-04-03T18:14:09.105Z,73.83
2019-04-03T18:16:41.776Z,73.73
2019-04-03T18:19:13.467Z,67.50
2019-04-03T18:21:46.890Z,63.53
2019-04-03T18:24:18.596Z,60.40
2019-04-03T18:26:50.303Z,54.83
2019-04-03T18:29:24.327Z,45.60
2019-04-03T18:31:55.297Z,50.27
2019-04-03T18:34:26.913Z,52.70
2019-04-03T18:36:58.628Z,42.00
2019-04-03T18:39:30.397Z,48.33
2019-04-03T18:42:02.546Z,45.40
2019-04-03T18:44:34.301Z,38.83
2019-04-03T18:47:06.759Z,42.27
2019-04-03T18:49:40.075Z,53.70
2019-04-03T18:52:11.849Z,29.80
2019-04-03T18:54:43.693Z,62.57
2019-04-03T18:57:17.120Z,74.37
2019-04-03T18:59:48.881Z,64.03
2019-04-03T19:02:20.662Z,73.53
2019-04-03T19:05:01.713Z,81.03
2019-04-03T19:07:25.738Z,48.47
2019-04-03T19:10:06.865Z,41.10
2019-04-03T19:12:35.743Z,41.53
2019-04-03T19:15:04.348Z,37.40
2019-04-03T19:17:37.772Z,40.67
2019-04-03T19:20:11.277Z,32.50
2019-04-03T19:22:42.854Z,37.00
2019-04-03T19:25:15.933Z,40.60
2019-04-03T19:27:49.798Z,48.60
2019-04-03T19:30:21.024Z,43.23
2019-04-03T19:32:52.859Z,36.63
2019-04-03T19:35:27.849Z,42.10
2019-04-03T19:37:58.452Z,32.53
2019-04-03T19:40:30.258Z,34.30
2019-04-03T19:43:02.011Z,31.33
2019-04-03T19:45:33.794Z,37.70
2019-04-03T19:48:05.461Z,37.83
2019-04-03T19:50:37.222Z,35.97
2019-04-03T19:53:09.005Z,36.67
2019-04-03T19:55:40.680Z,31.73
2019-04-03T19:58:12.345Z,39.77
2019-04-03T20:00:44.116Z,37.63
2019-04-03T20:03:15.888Z,38.37
2019-04-03T20:05:50.101Z,32.93
2019-04-03T20:08:20.944Z,35.27
2019-04-03T20:10:52.622Z,31.00
2019-04-03T20:13:24.540Z,36.97
2019-04-03T20:15:56.228Z,31.20
2019-04-03T20:18:27.825Z,33.30
2019-04-03T20:20:59.436Z,43.07
2019-04-03T20:23:31.140Z,33.17
2019-04-03T20:26:04.712Z,31.23
2019-04-03T20:28:36.946Z,40.83
2019-04-03T20:31:08.705Z,46.17
2019-04-03T20:33:42.152Z,63.90
2019-04-03T20:36:16.513Z,63.03
2019-04-03T20:38:47.188Z,60.33
2019-04-03T20:41:18.962Z,56.83
2019-04-03T20:43:50.753Z,46.57
2019-04-03T20:46:23.867Z,73.60
2019-04-03T20:48:58.451Z,144.43
2019-04-03T20:51:29.502Z,122.33
2019-04-03T20:54:01.283Z,65.33
2019-04-03T20:56:34.207Z,64.70
2019-04-03T20:59:06.018Z,71.13
2019-04-03T21:01:37.718Z,95.73
2019-04-03T21:04:09.427Z,272.50
2019-04-03T21:06:41.438Z,324.37
2019-04-03T21:09:13.230Z,152.00
2019-04-03T21:11:45.009Z,117.60
2019-04-03T21:14:16.730Z,118.10
2019-04-03T21:16:48.540Z,172.57
2019-04-03T21:19:21.435Z,98.20
2019-04-03T21:21:53.712Z,109.70
2019-04-03T21:24:25.404Z,138.40
2019-04-03T21:26:57.115Z,107.10
2019-04-03T21:29:28.835Z,115.57
2019-04-03T21:32:00.529Z,85.17
2019-04-03T21:34:33.221Z,253.87
2019-04-03T21:37:04.968Z,142.83
2019-04-03T21:39:36.702Z,113.47
2019-04-03T21:42:08.434Z,111.07
2019-04-03T21:44:40.220Z,117.60
2019-04-03T21:47:12.254Z,126.63
2019-04-03T21:49:43.896Z,138.50
2019-04-03T21:52:15.614Z,143.07
2019-04-03T21:54:47.331Z,122.40
2019-04-03T21:57:19.126Z,131.30
2019-04-03T21:59:50.681Z,103.90
2019-04-03T22:02:22.408Z,75.43
2019-04-03T22:04:55.194Z,122.30
2019-04-03T22:07:28.540Z,101.73
2019-04-03T22:10:01.902Z,84.27
2019-04-03T22:12:34.827Z,98.37
2019-04-03T22:15:08.243Z,110.70
2019-04-03T22:17:40.417Z,92.50
2019-04-03T22:20:12.885Z,179.67
2019-04-03T22:22:45.054Z,149.17
2019-04-03T22:25:17.241Z,98.17
2019-04-03T22:27:49.441Z,85.77
2019-04-03T22:30:21.784Z,96.50
2019-04-03T22:32:55.817Z,142.83
2019-04-03T22:35:28.337Z,114.27
2019-04-03T22:38:02.161Z,70.67
2019-04-03T22:40:34.549Z,91.53
2019-04-03T22:43:07.318Z,84.23
2019-04-03T22:45:39.543Z,136.03
2019-04-03T22:48:11.801Z,73.03
2019-04-03T22:50:43.955Z,81.90
2019-04-03T22:53:16.225Z,68.03
2019-04-03T22:55:48.489Z,77.23
2019-04-03T22:58:21.516Z,67.70
2019-04-03T23:00:53.802Z,69.90
2019-04-03T23:03:25.973Z,76.87
2019-04-03T23:05:58.149Z,56.67
2019-04-03T23:08:30.417Z,60.37
2019-04-03T23:11:03.752Z,51.17
2019-04-03T23:13:36.272Z,100.53
2019-04-03T23:16:09.624Z,123.00
2019-04-03T23:18:42.640Z,142.50
2019-04-03T23:21:15.042Z,101.37
2019-04-03T23:23:48.839Z,93.60
2019-04-03T23:26:21.054Z,85.73
2019-04-03T23:28:53.449Z,81.13
2019-04-03T23:31:25.645Z,75.50
2019-04-03T23:33:57.865Z,85.13
2019-04-03T23:36:30.092Z,64.70
2019-04-03T23:39:02.288Z,63.50
2019-04-03T23:41:36.658Z,80.70
2019-04-03T23:44:11.028Z,69.77
2019-04-03T23:46:45.479Z,76.37
2019-04-03T23:49:18.127Z,56.63
2019-04-03T23:51:51.716Z,57.40
2019-04-03T23:54:23.835Z,55.47
2019-04-03T23:56:56.022Z,68.83
2019-04-03T23:59:28.415Z,61.30
